createdAt,value
2019-02-02T00:02:09.142Z,0.10
2019-02-02T00:04:36.435Z,0.10
2019-02-02T00:07:03.870Z,0.00
2019-02-02T00:09:31.354Z,0.00
2019-02-02T00:11:58.672Z,0.00
2019-02-02T00:14:26.063Z,0.00
2019-02-02T00:16:53.491Z,-0.10
2019-02-02T00:19:20.865Z,-0.10
2019-02-02T00:21:48.192Z,-0.10
2019-02-02T00:24:15.550Z,-0.20
2019-02-02T00:26:43.067Z,-0.10
2019-02-02T00:29:11.498Z,-0.10
2019-02-02T00:31:38.976Z,-0.10
2019-02-02T00:34:06.292Z,-0.10
2019-02-02T00:36:33.810Z,-0.20
2019-02-02T00:39:01.012Z,-0.20
2019-02-02T00:41:28.428Z,-0.30
2019-02-02T00:43:55.814Z,-0.40
2019-02-02T00:46:23.202Z,-0.40
2019-02-02T00:48:50.614Z,-0.50
2019-02-02T00:51:17.949Z,-0.50
2019-02-02T00:53:45.243Z,-0.50
2019-02-02T00:56:12.688Z,-0.40
2019-02-02T00:58:40.198Z,-0.30
2019-02-02T01:01:09.350Z,-0.30
2019-02-02T01:03:36.723Z,-0.30
2019-02-02T01:06:05.004Z,-0.20
2019-02-02T01:08:32.655Z,-0.20
2019-02-02T01:11:00.025Z,-0.20
2019-02-02T01:13:28.873Z,-0.30
2019-02-02T01:15:56.435Z,-0.30
2019-02-02T01:18:23.652Z,-0.30
2019-02-02T01:20:51.148Z,-0.30
2019-02-02T01:23:18.686Z,-0.20
2019-02-02T01:25:46.287Z,-0.10
2019-02-02T01:28:13.752Z,-0.10
2019-02-02T01:30:41.203Z,-0.10
2019-02-02T01:33:08.626Z,0.00
2019-02-02T01:35:37.662Z,0.00
2019-02-02T01:38:05.247Z,0.10
2019-02-02T01:40:34.928Z,0.10
2019-02-02T01:43:02.003Z,0.10
2019-02-02T01:45:29.537Z,0.20
2019-02-02T01:47:57.707Z,0.20
2019-02-02T01:50:24.993Z,0.30
2019-02-02T01:52:52.646Z,0.30
2019-02-02T01:55:20.453Z,0.30
2019-02-02T01:57:47.785Z,0.30
2019-02-02T02:00:19.374Z,0.40
2019-02-02T02:02:46.753Z,0.40
2019-02-02T02:05:14.164Z,0.40
2019-02-02T02:07:41.664Z,0.40
2019-02-02T02:10:10.869Z,0.50
2019-02-02T02:12:38.203Z,0.50
2019-02-02T02:15:06.375Z,0.50
2019-02-02T02:17:33.970Z,0.50
2019-02-02T02:20:01.477Z,0.50
2019-02-02T02:22:28.731Z,0.40
2019-02-02T02:24:56.135Z,0.40
2019-02-02T02:27:23.334Z,0.40
2019-02-02T02:29:50.716Z,0.40
2019-02-02T02:32:18.174Z,0.40
2019-02-02T02:34:45.628Z,0.40
2019-02-02T02:37:12.957Z,0.50
2019-02-02T02:39:40.437Z,0.40
2019-02-02T02:42:07.754Z,0.40
2019-02-02T02:44:35.121Z,0.40
2019-02-02T02:47:02.624Z,0.40
2019-02-02T02:49:30.049Z,0.40
2019-02-02T02:51:57.311Z,0.40
2019-02-02T02:54:24.435Z,0.40
2019-02-02T02:56:51.756Z,0.40
2019-02-02T02:59:19.145Z,0.40
2019-02-02T03:01:46.630Z,0.40
2019-02-02T03:04:13.984Z,0.40
2019-02-02T03:06:41.298Z,0.50
2019-02-02T03:09:08.964Z,0.50
2019-02-02T03:11:36.333Z,0.50
2019-02-02T03:14:04.135Z,0.60
2019-02-02T03:16:31.472Z,0.50
2019-02-02T03:18:58.730Z,0.40
2019-02-02T03:21:26.037Z,0.40
2019-02-02T03:23:53.712Z,0.40
2019-02-02T03:26:21.057Z,0.50
2019-02-02T03:28:53.515Z,0.50
2019-02-02T03:31:17.637Z,0.50
2019-02-02T03:33:45.089Z,0.50
2019-02-02T03:36:12.220Z,0.50
2019-02-02T03:38:39.379Z,0.50
2019-02-02T03:41:06.743Z,0.60
2019-02-02T03:43:34.279Z,0.60
2019-02-02T03:46:01.457Z,0.60
2019-02-02T03:48:28.832Z,0.60
2019-02-02T03:50:56.279Z,0.60
2019-02-02T03:53:23.696Z,0.70
2019-02-02T03:55:52.070Z,0.70
2019-02-02T03:58:20.673Z,0.70
2019-02-02T04:00:48.124Z,0.70
2019-02-02T04:03:15.485Z,0.70
2019-02-02T04:05:42.716Z,0.70
2019-02-02T04:08:11.137Z,0.70
2019-02-02T04:10:38.362Z,0.60
2019-02-02T04:13:05.920Z,0.60
2019-02-02T04:15:33.481Z,0.60
2019-02-02T04:18:00.750Z,0.70
2019-02-02T04:20:29.087Z,0.70
2019-02-02T04:23:02.101Z,0.70
2019-02-02T04:25:30.543Z,0.70
2019-02-02T04:27:58.116Z,0.70
2019-02-02T04:30:27.607Z,0.80
2019-02-02T04:32:55.425Z,0.80
2019-02-02T04:35:23.758Z,0.80
2019-02-02T04:37:51.248Z,0.80
2019-02-02T04:40:18.811Z,0.80
2019-02-02T04:42:46.181Z,0.80
2019-02-02T04:45:13.647Z,0.70
2019-02-02T04:47:41.632Z,0.70
2019-02-02T04:50:10.180Z,0.70
2019-02-02T04:52:37.718Z,0.70
2019-02-02T04:55:06.433Z,0.70
2019-02-02T04:57:34.099Z,0.70
2019-02-02T05:00:01.342Z,0.70
2019-02-02T05:02:30.494Z,0.70
2019-02-02T05:04:58.876Z,0.70
2019-02-02T05:07:26.268Z,0.70
2019-02-02T05:12:27.773Z,0.60
2019-02-02T05:14:56.085Z,0.60
2019-02-02T05:17:24.349Z,0.60
2019-02-02T05:19:53.177Z,0.60
2019-02-02T05:22:21.575Z,0.60
2019-02-02T05:24:49.955Z,0.60
2019-02-02T05:27:17.865Z,0.50
2019-02-02T05:29:46.037Z,0.60
2019-02-02T05:32:14.332Z,0.60
2019-02-02T05:34:42.326Z,0.60
2019-02-02T05:37:10.372Z,0.60
2019-02-02T05:39:38.485Z,0.60
2019-02-02T05:42:06.479Z,0.60
2019-02-02T05:44:34.794Z,0.50
2019-02-02T05:47:43.072Z,0.60
2019-02-02T05:50:12.620Z,0.50
2019-02-02T05:52:40.809Z,0.60
2019-02-02T05:55:10.404Z,0.60
2019-02-02T05:57:38.535Z,0.60
2019-02-02T06:00:10.965Z,0.60
2019-02-02T06:02:39.429Z,0.60
2019-02-02T06:05:07.504Z,0.60
2019-02-02T06:07:35.739Z,0.60
2019-02-02T06:10:06.761Z,0.70
2019-02-02T06:12:36.058Z,0.70
2019-02-02T06:15:05.784Z,0.70
2019-02-02T06:17:36.468Z,0.80
2019-02-02T06:20:06.873Z,0.80
2019-02-02T06:22:35.161Z,0.70
2019-02-02T06:25:03.512Z,0.70
2019-02-02T06:27:31.497Z,0.70
2019-02-02T06:30:04.401Z,0.70
2019-02-02T06:32:29.798Z,0.70
2019-02-02T06:34:57.832Z,0.80
2019-02-02T06:37:25.919Z,0.80
2019-02-02T06:39:55.189Z,0.70
2019-02-02T06:42:23.294Z,0.70
2019-02-02T06:44:51.488Z,0.70
2019-02-02T06:47:19.421Z,0.70
2019-02-02T06:49:47.721Z,0.70
2019-02-02T06:52:17.369Z,0.70
2019-02-02T06:54:45.633Z,0.70
2019-02-02T06:57:13.640Z,0.70
2019-02-02T06:59:41.840Z,0.80
2019-02-02T07:02:09.895Z,0.70
2019-02-02T07:04:38.110Z,0.70
2019-02-02T07:07:06.331Z,0.70
2019-02-02T07:09:34.408Z,0.70
2019-02-02T07:12:02.747Z,0.60
2019-02-02T07:14:31.768Z,0.60
2019-02-02T07:16:59.991Z,0.60
2019-02-02T07:19:29.191Z,0.60
2019-02-02T07:21:57.456Z,0.70
2019-02-02T07:24:25.734Z,0.60
2019-02-02T07:26:54.131Z,0.60
2019-02-02T07:29:24.071Z,0.60
2019-02-02T07:31:51.899Z,0.60
2019-02-02T07:34:19.936Z,0.60
2019-02-02T07:36:48.266Z,0.60
2019-02-02T07:39:16.389Z,0.70
2019-02-02T07:41:44.583Z,0.80
2019-02-02T07:44:12.696Z,0.80
2019-02-02T07:46:40.897Z,0.80
2019-02-02T07:49:08.916Z,0.80
2019-02-02T07:51:37.075Z,0.80
2019-02-02T07:54:05.363Z,0.80
2019-02-02T07:56:33.334Z,0.90
2019-02-02T07:59:01.201Z,1.00
2019-02-02T08:01:29.296Z,0.90
2019-02-02T08:03:57.420Z,1.00
2019-02-02T08:06:25.529Z,1.00
2019-02-02T08:08:53.529Z,1.10
2019-02-02T08:11:21.641Z,1.10
2019-02-02T08:13:49.880Z,1.10
2019-02-02T08:16:19.144Z,1.10
2019-02-02T08:18:47.270Z,1.10
2019-02-02T08:21:17.607Z,1.00
2019-02-02T08:23:45.548Z,0.90
2019-02-02T08:26:13.760Z,0.90
2019-02-02T08:28:41.836Z,0.80
2019-02-02T08:31:10.004Z,0.80
2019-02-02T08:33:38.243Z,0.70
2019-02-02T08:36:06.565Z,0.70
2019-02-02T08:38:34.756Z,0.70
2019-02-02T08:41:02.866Z,0.80
2019-02-02T08:43:31.080Z,0.80
2019-02-02T08:46:00.863Z,0.80
2019-02-02T08:48:29.227Z,0.90
2019-02-02T08:50:57.323Z,0.90
2019-02-02T08:53:25.491Z,0.90
2019-02-02T08:55:55.346Z,1.00
2019-02-02T08:58:23.531Z,1.00
2019-02-02T09:01:03.693Z,1.00
2019-02-02T09:03:23.730Z,1.10
2019-02-02T09:06:02.571Z,1.10
2019-02-02T09:08:52.471Z,1.20
2019-02-02T09:11:30.922Z,1.20
2019-02-02T09:14:07.115Z,1.20
2019-02-02T09:16:35.267Z,1.30
2019-02-02T09:19:03.574Z,1.40
2019-02-02T09:21:31.591Z,1.50
2019-02-02T09:24:00.736Z,1.60
2019-02-02T09:26:28.900Z,1.60
2019-02-02T09:28:58.397Z,1.70
2019-02-02T09:31:26.665Z,1.80
2019-02-02T09:33:54.763Z,1.90
2019-02-02T09:36:22.997Z,1.90
2019-02-02T09:38:50.350Z,2.00
2019-02-02T09:41:17.750Z,2.00
2019-02-02T09:43:45.068Z,2.00
2019-02-02T09:46:12.551Z,2.10
2019-02-02T09:48:39.873Z,2.00
2019-02-02T09:51:07.243Z,2.00
2019-02-02T09:53:34.585Z,1.90
2019-02-02T09:56:01.853Z,1.90
2019-02-02T09:58:29.383Z,1.90
2019-02-02T10:00:56.884Z,1.90
2019-02-02T10:03:24.291Z,2.00
2019-02-02T10:05:51.784Z,2.10
2019-02-02T10:08:19.257Z,2.20
2019-02-02T10:10:46.563Z,2.20
2019-02-02T10:13:15.599Z,2.20
2019-02-02T10:15:43.144Z,2.20
2019-02-02T10:18:10.418Z,2.20
2019-02-02T10:20:39.028Z,2.30
2019-02-02T10:23:06.571Z,2.20
2019-02-02T10:25:33.864Z,2.20
2019-02-02T10:28:01.598Z,2.30
2019-02-02T10:30:30.216Z,2.50
2019-02-02T10:32:57.599Z,2.70
2019-02-02T10:35:24.939Z,2.90
2019-02-02T10:37:52.411Z,3.10
2019-02-02T10:40:19.819Z,3.30
2019-02-02T10:42:47.294Z,3.50
2019-02-02T10:45:14.778Z,3.80
2019-02-02T10:47:42.917Z,3.90
2019-02-02T10:50:10.931Z,3.80
2019-02-02T10:52:38.238Z,3.70
2019-02-02T10:55:06.263Z,3.80
2019-02-02T10:57:33.572Z,3.80
2019-02-02T11:00:00.963Z,4.00
2019-02-02T11:02:28.391Z,4.00
2019-02-02T11:04:55.948Z,3.90
2019-02-02T11:07:23.331Z,3.70
2019-02-02T11:09:50.812Z,3.70
2019-02-02T11:12:18.019Z,3.70
2019-02-02T11:14:45.476Z,3.60
2019-02-02T11:17:12.942Z,3.50
2019-02-02T11:19:40.369Z,3.50
2019-02-02T11:22:07.791Z,3.60
2019-02-02T11:24:35.236Z,3.70
2019-02-02T11:27:02.487Z,3.80
2019-02-02T11:29:29.813Z,4.10
2019-02-02T11:32:03.090Z,4.40
2019-02-02T11:34:26.779Z,4.50
2019-02-02T11:36:54.555Z,4.60
2019-02-02T11:39:22.417Z,4.80
2019-02-02T11:41:51.423Z,5.00
2019-02-02T11:44:20.154Z,5.10
2019-02-02T11:46:47.986Z,5.30
2019-02-02T11:49:15.512Z,5.40
2019-02-02T11:51:42.939Z,5.60
2019-02-02T11:54:10.328Z,5.60
2019-02-02T11:56:37.690Z,5.50
2019-02-02T11:59:05.356Z,5.50
2019-02-02T12:01:34.432Z,5.40
2019-02-02T12:04:01.879Z,5.40
2019-02-02T12:06:29.328Z,5.20
2019-02-02T12:08:56.863Z,5.10
2019-02-02T12:11:24.280Z,5.20
2019-02-02T12:13:51.624Z,5.20
2019-02-02T12:16:19.095Z,5.20
2019-02-02T12:18:46.520Z,5.20
2019-02-02T12:21:13.874Z,5.20
2019-02-02T12:23:41.108Z,5.40
2019-02-02T12:26:08.487Z,5.50
2019-02-02T12:28:35.695Z,5.70
2019-02-02T12:31:05.019Z,6.00
2019-02-02T12:33:32.511Z,5.90
2019-02-02T12:35:59.852Z,5.80
2019-02-02T12:38:27.278Z,5.80
2019-02-02T12:40:54.720Z,5.80
2019-02-02T12:43:22.019Z,5.70
2019-02-02T12:45:51.685Z,5.70
2019-02-02T12:48:19.180Z,5.90
2019-02-02T12:50:46.533Z,5.90
2019-02-02T12:53:14.192Z,6.00
2019-02-02T12:55:41.435Z,6.20
2019-02-02T12:58:08.901Z,6.20
2019-02-02T13:00:36.316Z,6.10
2019-02-02T13:03:04.112Z,5.80
2019-02-02T13:05:31.566Z,5.60
2019-02-02T13:07:59.014Z,5.70
2019-02-02T13:10:26.727Z,5.90
2019-02-02T13:12:54.318Z,6.10
2019-02-02T13:15:21.805Z,6.30
2019-02-02T13:17:49.084Z,6.20
2019-02-02T13:20:17.751Z,6.30
2019-02-02T13:22:45.084Z,6.30
2019-02-02T13:25:13.299Z,6.20
2019-02-02T13:27:40.634Z,6.20
2019-02-02T13:30:10.855Z,6.30
2019-02-02T13:32:49.136Z,6.30
2019-02-02T13:35:08.692Z,6.40
2019-02-02T13:37:36.298Z,6.30
2019-02-02T13:40:04.610Z,6.40
2019-02-02T13:42:32.000Z,6.30
2019-02-02T13:44:59.462Z,6.30
2019-02-02T13:47:26.942Z,6.40
2019-02-02T13:49:54.381Z,6.30
2019-02-02T13:52:21.769Z,6.10
2019-02-02T13:54:49.182Z,6.10
2019-02-02T13:57:17.496Z,6.10
2019-02-02T13:59:44.824Z,6.00
2019-02-02T14:02:12.233Z,6.00
2019-02-02T14:04:41.219Z,6.10
2019-02-02T14:07:17.800Z,6.10
2019-02-02T14:09:37.902Z,6.10
2019-02-02T14:12:05.395Z,6.10
2019-02-02T14:14:32.939Z,6.00
2019-02-02T14:17:00.330Z,6.00
2019-02-02T14:19:27.731Z,6.00
2019-02-02T14:21:55.217Z,6.00
2019-02-02T14:24:22.646Z,5.90
2019-02-02T14:26:50.163Z,6.00
2019-02-02T14:29:17.379Z,5.90
2019-02-02T14:31:44.835Z,5.90
2019-02-02T14:34:12.366Z,5.80
2019-02-02T14:36:39.626Z,5.80
2019-02-02T14:39:08.559Z,5.80
2019-02-02T14:41:35.977Z,5.80
2019-02-02T14:44:03.458Z,5.70
2019-02-02T14:46:30.806Z,5.60
2019-02-02T14:48:58.480Z,5.50
2019-02-02T14:51:25.897Z,5.30
2019-02-02T14:53:54.707Z,5.10
2019-02-02T14:56:22.148Z,4.90
2019-02-02T14:58:49.620Z,4.80
2019-02-02T15:01:17.916Z,4.70
2019-02-02T15:03:46.964Z,4.60
2019-02-02T15:06:14.341Z,4.60
2019-02-02T15:08:46.576Z,4.60
2019-02-02T15:11:15.940Z,4.70
2019-02-02T15:13:43.047Z,4.70
2019-02-02T15:16:10.545Z,4.80
2019-02-02T15:18:37.794Z,4.80
2019-02-02T15:21:05.357Z,4.80
2019-02-02T15:23:32.766Z,4.80
2019-02-02T15:26:00.256Z,4.70
2019-02-02T15:28:27.811Z,4.70
2019-02-02T15:30:56.879Z,4.60
2019-02-02T15:33:23.941Z,4.60
2019-02-02T15:35:51.300Z,4.50
2019-02-02T15:38:20.660Z,4.50
2019-02-02T15:40:58.437Z,4.50
2019-02-02T15:43:17.171Z,4.50
2019-02-02T15:45:44.523Z,4.40
2019-02-02T15:48:11.787Z,4.40
2019-02-02T15:50:38.900Z,4.40
2019-02-02T15:53:06.394Z,4.40
2019-02-02T15:55:33.494Z,4.40
2019-02-02T15:58:00.984Z,4.30
2019-02-02T16:00:29.445Z,4.20
2019-02-02T16:02:56.816Z,4.00
2019-02-02T16:05:24.517Z,4.00
2019-02-02T16:07:52.049Z,4.00
2019-02-02T16:10:20.696Z,4.00
2019-02-02T16:12:48.062Z,4.00
2019-02-02T16:15:15.530Z,4.00
2019-02-02T16:17:42.952Z,4.00
2019-02-02T16:20:16.054Z,4.00
2019-02-02T16:22:43.345Z,4.00
2019-02-02T16:25:10.986Z,4.00
2019-02-02T16:27:38.430Z,3.90
2019-02-02T16:30:06.520Z,3.80
2019-02-02T16:32:33.964Z,3.60
2019-02-02T16:35:01.428Z,3.50
2019-02-02T16:37:28.835Z,3.30
2019-02-02T16:39:56.167Z,3.20
2019-02-02T16:42:23.500Z,3.10
2019-02-02T16:44:50.822Z,3.10
2019-02-02T16:47:18.303Z,3.00
2019-02-02T16:49:45.625Z,2.90
2019-02-02T16:52:13.115Z,2.90
2019-02-02T16:54:40.538Z,2.90
2019-02-02T16:57:08.024Z,2.90
2019-02-02T16:59:35.338Z,2.80
2019-02-02T17:02:02.734Z,2.80
2019-02-02T17:04:30.141Z,2.70
2019-02-02T17:06:57.633Z,2.70
2019-02-02T17:09:25.070Z,2.60
2019-02-02T17:11:52.448Z,2.60
2019-02-02T17:14:19.779Z,2.60
2019-02-02T17:16:47.270Z,2.40
2019-02-02T17:19:14.618Z,2.40
2019-02-02T17:21:42.288Z,2.10
2019-02-02T17:24:09.660Z,1.90
2019-02-02T17:26:37.057Z,1.70
2019-02-02T17:29:04.543Z,1.80
2019-02-02T17:31:31.867Z,1.80
2019-02-02T17:33:59.189Z,1.80
2019-02-02T17:36:27.786Z,1.90
2019-02-02T17:38:55.007Z,1.90
2019-02-02T17:41:22.311Z,1.90
2019-02-02T17:43:49.784Z,2.00
2019-02-02T17:46:18.376Z,2.00
2019-02-02T17:48:45.802Z,2.00
2019-02-02T17:51:13.295Z,2.00
2019-02-02T17:53:40.547Z,1.90
2019-02-02T17:56:07.837Z,1.90
2019-02-02T17:58:39.639Z,1.80
2019-02-02T18:01:04.478Z,1.90
2019-02-02T18:03:31.707Z,1.80
2019-02-02T18:05:59.095Z,1.90
2019-02-02T18:08:26.595Z,1.90
2019-02-02T18:10:53.790Z,1.90
2019-02-02T18:13:21.102Z,1.80
2019-02-02T18:15:48.595Z,1.70
2019-02-02T18:18:15.951Z,1.70
2019-02-02T18:20:43.256Z,1.70
2019-02-02T18:23:10.835Z,1.70
2019-02-02T18:25:38.012Z,1.70
2019-02-02T18:28:06.603Z,1.70
2019-02-02T18:30:34.001Z,1.70
2019-02-02T18:33:01.592Z,1.70
2019-02-02T18:35:29.015Z,1.60
2019-02-02T18:37:58.142Z,1.60
2019-02-02T18:40:25.401Z,1.60
2019-02-02T18:42:53.187Z,1.60
2019-02-02T18:45:21.519Z,1.60
2019-02-02T18:47:49.167Z,1.60
2019-02-02T18:50:17.900Z,1.70
2019-02-02T18:52:47.724Z,1.70
2019-02-02T18:55:16.697Z,1.70
2019-02-02T18:57:44.125Z,1.70
2019-02-02T19:00:15.921Z,1.60
2019-02-02T19:02:44.993Z,1.60
2019-02-02T19:05:12.588Z,1.60
2019-02-02T19:07:39.985Z,1.60
2019-02-02T19:10:10.813Z,1.60
2019-02-02T19:12:38.179Z,1.60
2019-02-02T19:15:05.901Z,1.50
2019-02-02T19:17:33.316Z,1.50
2019-02-02T19:20:00.726Z,1.50
2019-02-02T19:22:28.047Z,1.60
2019-02-02T19:24:56.533Z,1.60
2019-02-02T19:27:23.930Z,1.70
2019-02-02T19:29:51.396Z,1.60
2019-02-02T19:32:18.980Z,1.60
2019-02-02T19:34:46.431Z,1.60
2019-02-02T19:37:13.717Z,1.60
2019-02-02T19:39:41.127Z,1.70
2019-02-02T19:42:08.498Z,1.70
2019-02-02T19:44:35.962Z,1.70
2019-02-02T19:47:15.474Z,1.70
2019-02-02T19:49:32.679Z,1.70
2019-02-02T19:52:00.178Z,1.80
2019-02-02T19:54:27.623Z,1.80
2019-02-02T19:56:55.075Z,1.80
2019-02-02T19:59:22.643Z,1.90
2019-02-02T20:01:50.083Z,1.90
2019-02-02T20:04:17.556Z,1.90
2019-02-02T20:06:44.891Z,1.90
2019-02-02T20:09:12.368Z,1.90
2019-02-02T20:11:41.190Z,1.90
2019-02-02T20:14:08.613Z,1.90
2019-02-02T20:16:37.951Z,1.90
2019-02-02T20:19:05.263Z,1.90
2019-02-02T20:21:32.713Z,1.90
2019-02-02T20:24:00.200Z,1.90
2019-02-02T20:26:27.499Z,1.90
2019-02-02T20:28:54.755Z,1.90
2019-02-02T20:31:23.389Z,1.90
2019-02-02T20:33:50.602Z,1.90
2019-02-02T20:36:17.886Z,1.90
2019-02-02T20:38:45.296Z,1.90
2019-02-02T20:41:12.787Z,1.80
2019-02-02T20:43:40.023Z,1.90
2019-02-02T20:46:07.521Z,1.80
2019-02-02T20:48:34.714Z,1.80
2019-02-02T20:51:02.308Z,1.90
2019-02-02T20:53:29.627Z,1.90
2019-02-02T20:55:57.019Z,1.90
2019-02-02T20:58:24.295Z,1.90
2019-02-02T21:00:51.727Z,1.90
2019-02-02T21:03:19.101Z,1.90
2019-02-02T21:05:52.458Z,1.90
2019-02-02T21:08:16.113Z,1.80
2019-02-02T21:10:44.652Z,1.90
2019-02-02T21:13:12.391Z,1.80
2019-02-02T21:15:39.849Z,1.80
2019-02-02T21:18:07.199Z,1.90
2019-02-02T21:20:34.836Z,2.00
2019-02-02T21:23:02.078Z,1.90
2019-02-02T21:25:29.565Z,2.00
2019-02-02T21:27:56.898Z,2.00
2019-02-02T21:30:25.303Z,2.00
2019-02-02T21:32:52.615Z,2.00
2019-02-02T21:35:20.614Z,2.00
2019-02-02T21:37:47.940Z,2.00
2019-02-02T21:40:16.142Z,2.00
2019-02-02T21:42:43.468Z,2.00
2019-02-02T21:45:11.371Z,1.90
2019-02-02T21:47:38.834Z,1.90
2019-02-02T21:50:07.678Z,1.90
2019-02-02T21:52:34.969Z,1.90
2019-02-02T21:55:02.408Z,1.90
2019-02-02T21:57:29.567Z,1.90
2019-02-02T21:59:56.891Z,1.90
2019-02-02T22:02:24.375Z,1.80
2019-02-02T22:04:51.818Z,1.80
2019-02-02T22:07:20.118Z,1.80
2019-02-02T22:09:47.446Z,1.80
2019-02-02T22:12:16.059Z,1.80
2019-02-02T22:14:43.475Z,1.80
2019-02-02T22:17:10.879Z,1.80
2019-02-02T22:19:38.096Z,1.80
2019-02-02T22:22:05.474Z,1.80
2019-02-02T22:24:32.719Z,1.80
2019-02-02T22:27:01.295Z,1.80
2019-02-02T22:29:29.622Z,1.80
2019-02-02T22:31:58.664Z,1.70
2019-02-02T22:34:37.968Z,1.80
2019-02-02T22:37:05.367Z,1.80
2019-02-02T22:39:32.793Z,1.80
2019-02-02T22:42:00.245Z,1.80
2019-02-02T22:44:27.726Z,1.80
2019-02-02T22:46:55.082Z,1.80
2019-02-02T22:49:24.459Z,1.80
2019-02-02T22:51:51.825Z,1.70
2019-02-02T22:54:19.316Z,1.70
2019-02-02T22:56:46.718Z,1.70
2019-02-02T22:59:14.216Z,1.70
2019-02-02T23:01:43.278Z,1.70
2019-02-02T23:04:33.200Z,1.70
2019-02-02T23:07:03.186Z,1.60
2019-02-02T23:09:49.935Z,1.60
2019-02-02T23:12:36.523Z,1.60
2019-02-02T23:15:29.463Z,1.60
2019-02-02T23:17:56.892Z,1.50
2019-02-02T23:20:24.394Z,1.50
2019-02-02T23:22:51.708Z,1.50
2019-02-02T23:25:19.201Z,1.50
2019-02-02T23:27:46.546Z,1.50
2019-02-02T23:30:14.303Z,1.50
2019-02-02T23:32:41.871Z,1.40
2019-02-02T23:35:09.398Z,1.40
2019-02-02T23:37:36.887Z,1.40
2019-02-02T23:40:04.753Z,1.40
2019-02-02T23:42:32.213Z,1.40
2019-02-02T23:45:00.047Z,1.40
2019-02-02T23:47:27.557Z,1.30
2019-02-02T23:49:54.863Z,1.40
2019-02-02T23:52:22.179Z,1.30
2019-02-02T23:54:49.600Z,1.30
2019-02-02T23:57:16.836Z,1.30
2019-02-02T23:59:44.341Z,1.30
